Time;durP1;ratioP1;P1;durP2;ratioP2;P2;SDS_P1;SDS_P2;PMS_P1;PMS_P2;Temp;Humidity;BMP_temperature;BMP_pressure;BME280_temperature;BME280_humidity;BME280_pressure;Samples;Min_cycle;Max_cycle;Signal;HPM_P1;HPM_P2
2022/07/21 00:01:50;;;;;;;12.90;9.10;;;;;;;20.75;83.19;99889.34;4928459;29;20793;-88
2022/07/21 00:04:15;;;;;;;9.83;8.07;;;;;;;20.80;83.03;99894.22;4928667;29;20463;-88
2022/07/21 00:06:42;;;;;;;11.40;9.57;;;;;;;20.80;82.93;99892.38;4928560;29;20470;-88
2022/07/21 00:09:09;;;;;;;13.23;9.73;;;;;;;20.75;82.87;99889.34;4928384;29;20293;-87
2022/07/21 00:11:37;;;;;;;9.93;8.70;;;;;;;20.75;83.06;99894.69;4908306;29;20630;-86
2022/07/21 00:14:10;;;;;;;11.03;8.43;;;;;;;20.75;82.76;99892.00;4928232;29;20469;-85
2022/07/21 00:16:38;;;;;;;11.97;9.17;;;;;;;20.71;82.87;99886.16;4928915;29;20542;-85
2022/07/21 00:19:04;;;;;;;10.53;8.80;;;;;;;20.64;83.06;99886.94;4928096;29;20456;-85
2022/07/21 00:21:32;;;;;;;11.33;8.90;;;;;;;20.58;83.15;99892.88;4928021;29;20454;-86
2022/07/21 00:23:58;;;;;;;11.97;9.23;;;;;;;20.50;83.40;99896.31;4926550;29;20851;-86
2022/07/21 00:26:23;;;;;;;10.10;8.07;;;;;;;20.51;83.55;99898.81;4927517;29;20552;-85
2022/07/21 00:28:49;;;;;;;16.50;8.60;;;;;;;20.52;83.20;99899.63;4927301;29;20270;-86
2022/07/21 00:31:18;;;;;;;11.67;8.90;;;;;;;20.47;83.43;99892.09;4926709;29;20230;-85
2022/07/21 00:33:45;;;;;;;14.82;11.48;;;;;;;20.42;84.09;99894.41;4926027;29;20903;-87
2022/07/21 00:36:11;;;;;;;11.70;10.10;;;;;;;20.33;84.34;99884.63;4921736;29;20211;-85
2022/07/21 00:38:40;;;;;;;12.33;10.97;;;;;;;20.31;84.39;99882.13;4921093;29;20474;-85
2022/07/21 00:41:07;;;;;;;13.20;10.37;;;;;;;20.29;84.45;99881.44;4927249;29;20436;-85
2022/07/21 00:43:42;;;;;;;14.07;10.07;;;;;;;20.27;84.45;99883.41;4927235;29;20469;-85
2022/07/21 00:46:08;;;;;;;15.20;9.97;;;;;;;20.33;84.35;99885.50;4907370;29;20330;-87
2022/07/21 00:48:35;;;;;;;13.70;10.10;;;;;;;20.37;84.13;99890.53;4927923;29;20461;-86
2022/07/21 00:51:04;;;;;;;13.83;9.63;;;;;;;20.40;83.93;99891.03;4926604;29;20485;-87
2022/07/21 00:53:32;;;;;;;14.10;9.87;;;;;;;20.44;83.89;99892.44;4927536;29;20210;-86
2022/07/21 00:55:59;;;;;;;13.97;12.00;;;;;;;20.46;83.96;99893.09;4926881;29;20542;-87
2022/07/21 00:58:25;;;;;;;14.30;12.90;;;;;;;20.45;84.03;99891.41;4927977;29;20481;-86
2022/07/21 01:00:51;;;;;;;19.10;14.63;;;;;;;20.43;84.99;99889.91;4926658;29;20553;-86
2022/07/21 01:03:19;;;;;;;16.87;12.50;;;;;;;20.39;85.03;99896.50;4927534;29;20218;-88
2022/07/21 01:05:45;;;;;;;15.23;12.80;;;;;;;20.36;85.25;99902.16;4926583;29;20733;-86
2022/07/21 01:08:11;;;;;;;18.70;13.37;;;;;;;20.36;85.28;99900.34;4926814;29;20488;-86
2022/07/21 01:10:39;;;;;;;16.73;13.90;;;;;;;20.38;85.13;99894.84;4927179;29;20596;-86
2022/07/21 01:13:12;;;;;;;15.83;13.50;;;;;;;20.41;85.22;99894.53;4927430;29;20466;-87
2022/07/21 01:15:40;;;;;;;22.53;15.90;;;;;;;20.44;85.03;99889.75;4925359;29;20991;-86
2022/07/21 01:18:05;;;;;;;20.60;14.00;;;;;;;20.43;85.14;99896.06;4927463;29;20553;-87
2022/07/21 01:20:37;;;;;;;16.63;14.63;;;;;;;20.40;85.09;99890.22;4921129;29;20223;-86
2022/07/21 01:23:03;;;;;;;19.73;15.63;;;;;;;20.35;85.25;99893.31;4927463;29;20302;-87
2022/07/21 01:25:28;;;;;;;19.53;14.67;;;;;;;20.31;85.28;99891.97;4927305;29;20957;-87
2022/07/21 01:27:54;;;;;;;17.73;13.83;;;;;;;20.31;85.48;99895.47;4927443;29;20525;-87
2022/07/21 01:30:20;;;;;;;18.00;14.67;;;;;;;20.30;85.23;99892.94;4927687;29;20202;-86
2022/07/21 01:32:46;;;;;;;18.75;15.68;;;;;;;20.29;85.60;99886.78;4926940;29;21006;-87
2022/07/21 01:35:16;;;;;;;16.70;14.90;;;;;;;20.30;85.79;99882.28;4927862;29;20222;-85
2022/07/21 01:37:44;;;;;;;17.43;15.63;;;;;;;20.32;85.52;99888.31;4928147;29;20258;-86
2022/07/21 01:42:55;;;;;;;16.63;14.50;;;;;;;20.31;85.13;99891.97;4929920;29;20461;-88
2022/07/21 01:45:23;;;;;;;18.03;16.10;;;;;;;20.29;85.22;99888.63;4932142;29;20454;-86
2022/07/21 01:47:49;;;;;;;18.63;16.07;;;;;;;20.27;85.15;99885.25;4937111;29;20576;-87
2022/07/21 01:50:18;;;;;;;18.93;17.03;;;;;;;20.25;84.91;99885.44;4942527;29;20225;-86
2022/07/21 01:52:46;;;;;;;17.23;15.40;;;;;;;20.23;85.04;99881.22;4941819;29;20453;-87
2022/07/21 01:55:14;;;;;;;17.17;15.47;;;;;;;20.20;84.84;99876.19;4926576;29;20500;-87
2022/07/21 01:57:42;;;;;;;20.23;16.13;;;;;;;20.19;84.77;99877.19;4911963;29;20496;-86
2022/07/21 02:00:15;;;;;;;18.40;15.30;;;;;;;20.16;84.90;99873.00;4953027;29;20485;-87
2022/07/21 02:02:43;;;;;;;18.90;16.90;;;;;;;20.15;84.69;99875.81;4944634;29;20463;-86
2022/07/21 02:05:09;;;;;;;18.50;15.53;;;;;;;20.15;84.68;99868.66;4938000;29;20468;-87
2022/07/21 02:07:35;;;;;;;18.87;17.07;;;;;;;20.15;84.57;99882.00;4937559;29;20812;-87
2022/07/21 02:10:03;;;;;;;19.03;17.03;;;;;;;20.13;84.60;99883.97;4932746;29;20618;-87
2022/07/21 02:12:33;;;;;;;19.83;17.73;;;;;;;20.11;84.64;99881.44;4930512;29;20233;-87
2022/07/21 02:14:59;;;;;;;17.60;15.63;;;;;;;20.11;84.59;99880.59;4915811;29;21001;-87
2022/07/21 02:17:24;;;;;;;21.50;17.80;;;;;;;20.13;84.52;99883.13;4914882;29;20501;-86
2022/07/21 02:19:49;;;;;;;22.47;16.70;;;;;;;20.15;84.51;99898.00;4914972;29;20570;-87
2022/07/21 02:22:15;;;;;;;20.07;16.40;;;;;;;20.18;84.41;99883.53;4914711;29;20204;-86
2022/07/21 02:24:40;;;;;;;17.90;16.00;;;;;;;20.20;84.18;99889.50;4917490;29;20740;-86
2022/07/21 02:27:06;;;;;;;18.73;16.83;;;;;;;20.20;84.22;99894.84;4914598;29;20301;-86
2022/07/21 02:29:35;;;;;;;18.30;16.30;;;;;;;20.23;84.24;99894.56;4915886;29;20230;-86
2022/07/21 02:32:02;;;;;;;19.30;17.20;;;;;;;20.22;84.19;99898.22;4911987;29;20226;-85
2022/07/21 02:34:28;;;;;;;17.53;15.80;;;;;;;20.22;84.04;99906.22;4914340;29;20465;-86
2022/07/21 02:36:53;;;;;;;19.17;15.90;;;;;;;20.19;84.04;99907.34;4914265;29;20479;-86
2022/07/21 02:39:20;;;;;;;19.10;16.57;;;;;;;20.18;84.22;99903.03;4913862;29;20580;-87
2022/07/21 02:41:46;;;;;;;18.77;16.10;;;;;;;20.19;84.09;99894.03;4916822;29;20274;-87
2022/07/21 02:44:23;;;;;;;16.50;14.80;;;;;;;20.18;84.03;99899.53;4916971;29;20455;-86
2022/07/21 02:46:51;;;;;;;16.30;14.50;;;;;;;20.16;84.11;99898.81;4915365;29;20470;-86
2022/07/21 02:49:19;;;;;;;18.17;16.20;;;;;;;20.14;84.13;99895.47;4914354;29;20446;-86
2022/07/21 02:51:47;;;;;;;18.73;15.67;;;;;;;20.11;84.30;99901.94;4912145;29;21068;-85
2022/07/21 02:54:13;;;;;;;18.03;16.10;;;;;;;20.06;84.50;99906.88;4912758;29;20578;-86
2022/07/21 02:56:38;;;;;;;17.60;15.40;;;;;;;20.00;84.72;99905.66;4914172;29;20553;-85
2022/07/21 02:59:07;;;;;;;20.80;16.20;;;;;;;19.99;84.64;99906.66;4914120;29;20222;-86
2022/07/21 03:01:38;;;;;;;16.50;14.80;;;;;;;20.00;84.55;99910.16;4914504;29;20280;-86
2022/07/21 03:04:04;;;;;;;18.50;16.70;;;;;;;20.01;84.76;99911.84;4905493;29;20454;-86
2022/07/21 03:06:29;;;;;;;18.07;15.67;;;;;;;20.03;84.55;99904.53;4911528;29;20457;-86
2022/07/21 03:08:55;;;;;;;16.90;15.30;;;;;;;20.09;84.16;99903.91;4911500;29;20241;-85
2022/07/21 03:11:20;;;;;;;18.07;16.27;;;;;;;20.11;84.13;99902.78;4909989;29;20612;-86
2022/07/21 03:13:46;;;;;;;20.43;17.83;;;;;;;20.14;83.95;99906.97;4910910;29;20221;-87
2022/07/21 03:16:13;;;;;;;18.50;16.03;;;;;;;20.11;83.79;99897.44;4910505;29;20262;-86
2022/07/21 03:18:40;;;;;;;19.30;16.90;;;;;;;20.06;84.11;99901.56;4910538;29;20293;-86
2022/07/21 03:21:07;;;;;;;18.10;16.00;;;;;;;20.00;84.26;99905.66;4909950;29;20491;-86
2022/07/21 03:23:33;;;;;;;21.40;19.20;;;;;;;20.00;84.41;99907.50;4908602;29;21129;-86
2022/07/21 03:26:09;;;;;;;21.67;16.80;;;;;;;19.97;84.61;99905.97;4909061;29;20469;-86
2022/07/21 03:28:36;;;;;;;18.07;15.73;;;;;;;19.97;84.43;99913.13;4910295;29;20484;-85
2022/07/21 03:31:02;;;;;;;20.23;16.87;;;;;;;19.93;84.63;99909.94;4909660;29;20688;-87
2022/07/21 03:33:28;;;;;;;21.97;19.77;;;;;;;19.93;85.22;99919.75;4909123;29;20502;-87
2022/07/21 03:35:58;;;;;;;21.20;17.30;;;;;;;19.89;nan;99922.72;4908677;29;20360;-87
2022/07/21 03:38:28;;;;;;;20.63;17.57;;;;;;;19.87;85.47;99913.19;4909855;29;20301;-87
2022/07/21 03:40:54;;;;;;;20.17;18.03;;;;;;;19.86;85.08;99916.84;4909757;29;20576;-86
2022/07/21 03:43:20;;;;;;;20.57;17.60;;;;;;;19.87;85.09;99915.84;4909614;29;20567;-86
2022/07/21 03:45:45;;;;;;;21.43;18.13;;;;;;;19.82;85.22;99918.13;4909330;29;20228;-87
2022/07/21 03:48:11;;;;;;;22.47;18.30;;;;;;;19.78;85.28;99916.75;4909626;29;20211;-86
2022/07/21 03:50:40;;;;;;;23.87;17.23;;;;;;;19.72;85.45;99915.53;4909386;29;20218;-87
2022/07/21 03:53:14;;;;;;;20.73;16.60;;;;;;;19.63;85.95;99919.03;4908125;29;20471;-87
2022/07/21 03:55:42;;;;;;;21.10;18.90;;;;;;;19.56;86.06;99913.47;4909888;29;20466;-86
2022/07/21 03:58:08;;;;;;;23.27;18.43;;;;;;;19.52;86.40;99912.09;4909440;29;20902;-86
2022/07/21 04:00:40;;;;;;;19.77;17.67;;;;;;;19.50;86.48;99921.25;4909637;29;20497;-87
2022/07/21 04:03:06;;;;;;;18.23;16.40;;;;;;;19.50;86.77;99918.56;4909449;29;20676;-86
2022/07/21 04:05:34;;;;;;;20.37;16.27;;;;;;;19.52;86.56;99914.75;4909105;29;20475;-87
2022/07/21 04:08:03;;;;;;;23.40;20.33;;;;;;;19.54;86.55;99923.44;4909276;29;20469;-86
2022/07/21 04:10:31;;;;;;;20.73;18.57;;;;;;;19.57;86.26;99924.97;4908493;29;20548;-86
2022/07/21 04:13:01;;;;;;;19.67;17.57;;;;;;;19.60;86.23;99928.16;4909194;29;20501;-86
2022/07/21 04:15:29;;;;;;;19.70;17.67;;;;;;;19.65;86.07;99922.41;4909001;29;20978;-86
2022/07/21 04:17:55;;;;;;;22.50;19.10;;;;;;;19.70;85.92;99919.34;4908568;29;20490;-86
2022/07/21 04:20:21;;;;;;;19.43;17.43;;;;;;;19.66;85.65;99919.63;4909101;29;20842;-86
2022/07/21 04:22:47;;;;;;;22.87;19.10;;;;;;;19.63;85.84;99917.25;4908766;29;20459;-86
2022/07/21 04:25:14;;;;;;;24.03;19.40;;;;;;;19.58;86.11;99910.69;4908682;29;20476;-87
2022/07/21 04:27:47;;;;;;;19.27;16.20;;;;;;;19.52;86.67;99917.41;4902570;29;20543;-86
2022/07/21 04:30:18;;;;;;;20.93;17.37;;;;;;;19.55;86.80;99926.94;4905738;29;21129;-86
2022/07/21 04:32:45;;;;;;;20.40;18.20;;;;;;;19.60;86.70;99925.50;4908519;29;20463;-86
2022/07/21 04:35:11;;;;;;;20.60;18.00;;;;;;;19.66;86.13;99926.81;4909410;29;21383;-88
2022/07/21 04:37:37;;;;;;;19.63;17.27;;;;;;;19.69;86.12;99923.00;4908996;29;20702;-87
2022/07/21 04:40:05;;;;;;;21.17;18.63;;;;;;;19.74;85.89;99918.03;4909024;29;20541;-87
2022/07/21 04:42:41;;;;;;;;;;;;;;;;;;;;;
2022/07/21 04:45:08;;;;;;;19.60;17.53;;;;;;;19.91;85.00;99927.91;4905729;29;20515;-87
2022/07/21 04:47:57;;;;;;;;;;;;;;;;;;;;;
2022/07/21 04:50:31;;;;;;;19.63;15.80;;;;;;;19.96;84.74;99928.31;4905420;29;20485;-88
2022/07/21 04:53:00;;;;;;;16.33;13.90;;;;;;;20.18;84.02;99919.03;4928176;29;20964;-88
2022/07/21 04:55:35;;;;;;;23.70;18.57;;;;;;;20.50;82.40;99923.81;4927832;29;20567;-87
2022/07/21 04:58:01;;;;;;;18.93;16.83;;;;;;;20.99;80.91;99929.56;4928398;29;20978;-87
2022/07/21 05:00:29;;;;;;;19.97;16.30;;;;;;;21.93;77.10;99932.34;4928633;29;20473;-88
2022/07/21 05:02:55;;;;;;;20.33;18.23;;;;;;;22.72;73.83;99933.66;4928424;29;20207;-88
2022/07/21 05:05:23;;;;;;;18.00;16.07;;;;;;;23.05;72.65;99931.78;4928417;29;20907;-88
2022/07/21 05:07:56;;;;;;;22.73;20.37;;;;;;;23.86;69.89;99924.50;4929319;29;20695;-89
2022/07/21 05:10:21;;;;;;;19.93;17.70;;;;;;;24.80;66.73;99921.69;4928082;29;20497;-88
2022/07/21 05:12:47;;;;;;;19.23;17.17;;;;;;;25.52;63.70;99918.38;4902665;29;20870;-89
2022/07/21 05:15:17;;;;;;;23.20;17.07;;;;;;;26.18;62.22;99927.28;4890790;29;20503;-89
2022/07/21 05:17:43;;;;;;;18.40;16.50;;;;;;;26.82;59.80;99921.06;4891160;29;20236;-88
2022/07/21 05:20:12;;;;;;;18.03;16.17;;;;;;;27.38;57.79;99920.19;4889925;29;20558;-89
2022/07/21 05:22:40;;;;;;;15.87;14.17;;;;;;;27.72;56.58;99915.78;4891601;29;20217;-91
2022/07/21 05:25:07;;;;;;;16.80;15.17;;;;;;;27.97;55.90;99914.22;4893047;29;20464;-89
2022/07/21 05:27:42;;;;;;;17.53;14.43;;;;;;;28.18;54.72;99920.53;4895754;29;20219;-88
2022/07/21 05:30:11;;;;;;;15.47;13.97;;;;;;;28.38;53.91;99915.13;4908908;29;20445;-88
2022/07/21 05:32:39;;;;;;;17.33;15.73;;;;;;;28.59;52.66;99912.28;4905764;29;20787;-90
2022/07/21 05:35:16;;;;;;;17.67;16.03;;;;;;;28.92;51.72;99913.31;4914669;29;20242;-89
2022/07/21 05:37:42;;;;;;;17.73;15.97;;;;;;;29.17;51.21;99914.34;4901610;29;20471;-88
2022/07/21 05:40:09;;;;;;;17.13;15.53;;;;;;;29.37;50.00;99924.28;4901029;29;20585;-90
2022/07/21 05:42:37;;;;;;;17.27;15.47;;;;;;;29.41;49.91;99922.78;4893196;29;20204;-89
2022/07/21 05:45:06;;;;;;;17.97;16.27;;;;;;;29.49;49.78;99925.28;4893498;29;20539;-89
2022/07/21 05:47:32;;;;;;;21.20;15.63;;;;;;;29.75;48.87;99922.50;4891553;29;20967;-89
2022/07/21 05:49:58;;;;;;;17.50;15.60;;;;;;;29.99;47.95;99930.91;4895057;29;20524;-90
2022/07/21 05:52:27;;;;;;;18.40;16.50;;;;;;;30.07;47.77;99924.44;4881313;29;20500;-89
2022/07/21 05:54:53;;;;;;;20.57;17.30;;;;;;;30.30;46.79;99930.16;4892050;29;20468;-89
2022/07/21 05:57:24;;;;;;;17.03;15.43;;;;;;;30.47;45.87;99924.19;4891751;29;20508;-89
2022/07/21 05:59:57;;;;;;;21.17;15.40;;;;;;;30.77;45.08;99933.31;4901409;29;20690;-91
2022/07/21 06:02:23;;;;;;;16.37;14.40;;;;;;;31.24;44.35;99931.00;4889660;29;20460;-90
2022/07/21 06:04:51;;;;;;;17.93;16.00;;;;;;;31.87;42.97;99924.47;4909512;29;20476;-89
2022/07/21 06:07:22;;;;;;;16.30;14.60;;;;;;;32.39;41.78;99926.66;4899955;29;20204;-89
2022/07/21 06:09:48;;;;;;;15.97;14.27;;;;;;;32.64;41.22;99931.94;4887301;29;21065;-90
2022/07/21 06:12:17;;;;;;;16.17;13.57;;;;;;;32.88;40.67;99930.06;4885688;29;20587;-89
2022/07/21 06:14:45;;;;;;;15.37;14.00;;;;;;;33.16;40.06;99926.66;4897392;29;20223;-90
2022/07/21 06:17:20;;;;;;;16.60;14.03;;;;;;;33.35;39.48;99931.94;4886810;29;20830;-91
2022/07/21 06:20:06;;;;;;;15.87;14.00;;;;;;;33.64;38.41;99930.97;4896980;29;20490;-90
2022/07/21 06:22:35;;;;;;;15.23;13.73;;;;;;;33.78;37.97;99930.69;4889324;29;20452;-91
2022/07/21 06:25:11;;;;;;;15.20;13.80;;;;;;;33.67;38.00;99941.38;4900868;29;20460;-91
2022/07/21 06:27:41;;;;;;;13.43;12.17;;;;;;;33.53;38.49;99934.56;4894330;29;20460;-93
2022/07/21 06:30:10;;;;;;;15.00;13.50;;;;;;;33.59;38.22;99930.03;4892752;29;20742;-91
2022/07/21 06:32:46;;;;;;;14.90;13.43;;;;;;;33.66;38.03;99944.34;4893467;29;20469;-90
2022/07/21 06:35:16;;;;;;;16.17;13.80;;;;;;;33.50;38.30;99943.19;4894139;29;20539;-90
2022/07/21 06:37:46;;;;;;;15.17;13.63;;;;;;;33.07;38.87;99941.69;4893896;29;20218;-92
2022/07/21 06:40:15;;;;;;;15.70;14.20;;;;;;;33.07;39.01;99943.59;4894829;29;20481;-91
2022/07/21 06:42:43;;;;;;;14.37;13.10;;;;;;;33.25;38.68;99940.75;4888668;29;20519;-89
2022/07/21 06:45:16;;;;;;;14.07;12.77;;;;;;;33.38;38.13;99934.19;4888511;29;20467;-90
2022/07/21 06:47:44;;;;;;;15.93;13.30;;;;;;;33.51;37.60;99933.94;4889066;29;20941;-90
2022/07/21 06:50:24;;;;;;;;;;;;;;;;;;;;;
2022/07/21 06:53:08;;;;;;;14.33;12.63;;;;;;;33.74;37.17;99932.25;4894134;29;20457;-91
2022/07/21 06:55:38;;;;;;;15.20;13.60;;;;;;;34.12;36.46;99931.66;4895131;29;20471;-90
2022/07/21 06:58:11;;;;;;;14.97;13.57;;;;;;;34.27;36.33;99928.34;4893809;29;20473;-91
2022/07/21 07:00:42;;;;;;;14.30;12.90;;;;;;;34.29;36.28;99932.50;4893471;29;20460;-91
2022/07/21 07:03:08;;;;;;;16.60;15.00;;;;;;;34.35;36.12;99933.41;4893138;29;20566;-88
2022/07/21 07:05:36;;;;;;;14.20;12.90;;;;;;;34.31;36.29;99932.25;4893838;29;20488;-90
2022/07/21 07:08:10;;;;;;;15.33;13.83;;;;;;;34.20;36.47;99936.69;4893328;29;20204;-88
2022/07/21 07:10:38;;;;;;;13.60;12.30;;;;;;;34.44;36.05;99942.03;4901674;29;20962;-91
2022/07/21 07:13:06;;;;;;;15.97;13.17;;;;;;;34.49;35.50;99942.94;4881245;29;20460;-88
2022/07/21 07:15:32;;;;;;;16.80;13.70;;;;;;;34.58;35.49;99944.22;4894608;29;20452;-90
2022/07/21 07:18:07;;;;;;;12.97;11.87;;;;;;;34.58;34.90;99938.75;4902127;29;20827;-89
2022/07/21 07:20:35;;;;;;;14.53;13.07;;;;;;;34.74;34.80;99947.19;4890048;29;20452;-91
2022/07/21 07:23:03;;;;;;;11.93;10.83;;;;;;;34.64;34.13;99945.13;4893868;29;20463;-93
2022/07/21 07:25:32;;;;;;;12.80;11.57;;;;;;;34.43;34.63;99952.13;4893201;29;20303;-89
2022/07/21 07:28:08;;;;;;;12.20;11.10;;;;;;;34.57;33.93;99955.38;4894962;29;20751;-88
2022/07/21 07:30:34;;;;;;;13.07;11.67;;;;;;;34.76;33.79;99955.97;4892614;29;20476;-87
2022/07/21 07:33:02;;;;;;;15.35;13.75;;;;;;;34.83;33.76;99956.59;4891847;29;20495;-89
2022/07/21 07:35:31;;;;;;;14.60;13.10;;;;;;;33.67;35.24;99959.63;4892547;29;20225;-87
2022/07/21 07:37:56;;;;;;;12.40;11.40;;;;;;;33.26;36.47;99964.97;4893699;29;20501;-90
2022/07/21 07:40:23;;;;;;;12.10;11.00;;;;;;;34.00;35.09;99958.09;4893427;29;20836;-88
2022/07/21 07:42:49;;;;;;;11.73;10.60;;;;;;;34.33;34.00;99957.41;4896060;29;20236;-89
2022/07/21 07:45:15;;;;;;;12.23;11.03;;;;;;;34.78;33.40;99954.66;4896563;29;20877;-88
2022/07/21 07:47:57;;;;;;;12.10;10.90;;;;;;;35.05;32.80;99958.56;4901304;29;20228;-88
2022/07/21 07:50:22;;;;;;;12.73;11.53;;;;;;;35.35;31.94;99950.88;4910502;29;20589;-87
2022/07/21 07:52:56;;;;;;;12.53;10.40;;;;;;;35.25;31.65;99958.91;4911511;29;20543;-90
2022/07/21 07:55:24;;;;;;;12.47;10.57;;;;;;;34.03;33.89;99957.63;4910994;29;20208;-89
2022/07/21 07:57:55;;;;;;;12.43;11.23;;;;;;;32.37;37.34;99956.78;4894008;29;20448;-88
2022/07/21 08:00:22;;;;;;;13.10;11.80;;;;;;;31.00;39.88;99964.44;4900666;29;20464;-89
2022/07/21 08:02:58;;;;;;;12.93;11.77;;;;;;;29.96;41.71;99964.69;4898626;29;20987;-88
2022/07/21 08:05:26;;;;;;;11.33;10.07;;;;;;;29.13;43.80;99966.38;4914121;29;20444;-88
2022/07/21 08:07:52;;;;;;;11.67;9.60;;;;;;;29.04;43.65;99965.75;4912236;29;20554;-87
2022/07/21 08:10:17;;;;;;;11.27;10.17;;;;;;;28.45;45.02;99970.88;4911906;29;20574;-91
2022/07/21 08:12:43;;;;;;;12.43;10.73;;;;;;;29.49;42.44;99961.31;4912205;29;20244;-87
2022/07/21 08:15:09;;;;;;;9.20;8.30;;;;;;;30.99;38.32;99958.19;4911420;29;20264;-89
2022/07/21 08:17:34;;;;;;;9.43;7.87;;;;;;;31.77;36.36;99948.63;4912050;29;20227;-88
2022/07/21 08:20:07;;;;;;;13.10;10.40;;;;;;;32.35;34.47;99947.22;4912555;29;20460;-90
2022/07/21 08:22:42;;;;;;;8.23;7.43;;;;;;;32.97;33.14;99944.13;4909913;29;20738;-88
2022/07/21 08:25:20;;;;;;;18.17;11.13;;;;;;;33.53;32.52;99944.59;4910740;29;20452;-87
2022/07/21 08:27:48;;;;;;;10.60;9.63;;;;;;;33.45;32.83;99949.34;4910985;29;20484;-88
2022/07/21 08:30:13;;;;;;;11.33;10.33;;;;;;;33.74;32.71;99940.44;4926507;29;20541;-87
2022/07/21 08:32:41;;;;;;;11.07;10.03;;;;;;;33.87;32.59;99942.88;4910362;29;20561;-88
2022/07/21 08:35:10;;;;;;;11.20;10.10;;;;;;;32.94;34.38;99948.16;4912805;29;20566;-88
2022/07/21 08:37:37;;;;;;;13.07;11.87;;;;;;;31.90;35.89;99953.88;4894619;29;20913;-88
2022/07/21 08:40:05;;;;;;;10.93;9.30;;;;;;;31.13;37.03;99950.75;4918043;29;20489;-86
2022/07/21 08:42:33;;;;;;;8.43;7.53;;;;;;;30.67;37.95;99962.00;4914687;29;20465;-87
2022/07/21 08:44:59;;;;;;;7.87;7.17;;;;;;;30.51;37.39;99964.19;4921297;29;20523;-88
2022/07/21 08:47:31;;;;;;;7.00;6.50;;;;;;;30.50;37.07;99957.09;4917793;29;20456;-87
2022/07/21 08:50:03;;;;;;;8.50;7.70;;;;;;;30.49;37.40;99954.59;4915392;29;20514;-88
2022/07/21 08:52:28;;;;;;;11.33;10.10;;;;;;;30.42;37.75;99957.38;4908121;29;20577;-87
2022/07/21 08:54:56;;;;;;;8.77;7.50;;;;;;;30.03;38.96;99956.53;4901617;29;20534;-87
2022/07/21 08:57:21;;;;;;;8.77;8.07;;;;;;;29.90;39.16;99965.56;4919359;29;20310;-89
2022/07/21 08:59:47;;;;;;;7.90;6.53;;;;;;;29.87;39.22;99954.34;4920638;29;20499;-88
2022/07/21 09:02:31;;;;;;;7.35;6.75;;;;;;;29.77;38.46;99966.44;4922507;29;20961;-89
2022/07/21 09:05:09;;;;;;;;;;;;;;;;;;;;;
2022/07/21 09:07:58;;;;;;;7.10;6.40;;;;;;;30.05;37.85;99967.97;4913021;29;20463;-89
2022/07/21 09:10:27;;;;;;;6.83;5.87;;;;;;;30.25;37.16;99961.66;4912603;29;20479;-89
2022/07/21 09:13:03;;;;;;;5.83;5.20;;;;;;;30.28;36.85;99966.66;4910405;29;20494;-89
2022/07/21 09:15:31;;;;;;;6.50;5.90;;;;;;;30.35;36.36;99964.72;4912128;29;21065;-90
2022/07/21 09:18:13;;;;;;;6.40;5.80;;;;;;;30.25;36.53;99962.50;4906672;29;20456;-88
2022/07/21 09:20:47;;;;;;;7.13;6.43;;;;;;;29.99;37.42;99963.44;4908481;29;20956;-88
2022/07/21 09:23:21;;;;;;;6.80;6.20;;;;;;;30.15;37.79;99957.50;4912672;29;20499;-89
2022/07/21 09:25:56;;;;;;;7.10;5.50;;;;;;;30.51;37.04;99960.63;4915427;29;21017;-90
2022/07/21 09:28:27;;;;;;;6.57;5.97;;;;;;;30.43;36.65;99959.88;4916694;29;20456;-89
2022/07/21 09:31:12;;;;;;;6.00;5.50;;;;;;;30.73;36.47;99969.22;4912728;29;20955;-89
2022/07/21 09:33:44;;;;;;;7.93;5.80;;;;;;;31.06;36.17;99958.97;4913086;29;20456;-89
2022/07/21 09:36:11;;;;;;;6.43;5.83;;;;;;;31.27;35.86;99956.88;4913398;29;20470;-89
2022/07/21 09:38:51;;;;;;;6.67;6.10;;;;;;;31.56;35.13;99951.78;4913585;29;20475;-87
2022/07/21 09:41:29;;;;;;;;;;;;;;;;;;;;;
2022/07/21 09:43:57;;;;;;;6.23;5.57;;;;;;;31.36;35.25;99952.81;4894621;29;20943;-87
2022/07/21 09:46:30;;;;;;;6.50;5.87;;;;;;;31.06;35.18;99950.00;4913347;29;20468;-89
2022/07/21 09:49:04;;;;;;;7.30;6.50;;;;;;;31.08;35.62;99943.31;4915879;29;20460;-91
2022/07/21 09:51:31;;;;;;;6.40;5.80;;;;;;;30.83;35.39;99947.91;4920041;29;21066;-90
2022/07/21 09:53:58;;;;;;;7.00;5.50;;;;;;;30.61;35.27;99955.56;4918178;29;20456;-88
2022/07/21 09:56:28;;;;;;;7.20;5.63;;;;;;;30.63;34.89;99946.16;4930471;29;20436;-89
2022/07/21 09:58:55;;;;;;;6.70;5.37;;;;;;;30.34;34.96;99941.38;4927787;29;20455;-87
2022/07/21 10:01:26;;;;;;;6.57;5.97;;;;;;;30.38;35.22;99939.88;4915410;29;20468;-87
2022/07/21 10:03:55;;;;;;;6.13;5.60;;;;;;;30.84;35.05;99942.28;4920386;29;20459;-88
2022/07/21 10:06:27;;;;;;;7.30;5.60;;;;;;;31.28;34.26;99937.66;4925529;29;20498;-88
2022/07/21 10:08:56;;;;;;;6.73;6.03;;;;;;;31.69;33.72;99943.50;4922605;29;20466;-88
2022/07/21 10:11:23;;;;;;;5.90;5.17;;;;;;;31.72;33.22;99932.16;4920487;29;20502;-87
2022/07/21 10:13:49;;;;;;;6.83;6.17;;;;;;;31.63;33.34;99937.09;4900930;29;20467;-88
2022/07/21 10:16:15;;;;;;;6.37;5.90;;;;;;;31.71;33.13;99927.81;4914607;29;20464;-88
2022/07/21 10:19:08;;;;;;;6.47;5.97;;;;;;;31.45;33.28;99932.50;4914056;29;20499;-88
2022/07/21 10:21:46;;;;;;;5.67;5.20;;;;;;;30.97;34.37;99941.31;4912981;29;20464;-87
2022/07/21 10:24:13;;;;;;;6.27;5.70;;;;;;;30.69;35.00;99932.78;4913018;29;20451;-87
2022/07/21 10:27:06;;;;;;;6.47;5.97;;;;;;;30.69;35.01;99928.19;4913294;29;20535;-87
2022/07/21 10:29:58;;;;;;;7.40;6.80;;;;;;;30.84;34.96;99931.44;4907392;29;20519;-89
2022/07/21 10:32:33;;;;;;;7.70;6.83;;;;;;;31.28;34.43;99923.25;4912306;29;21033;-87
2022/07/21 10:35:23;;;;;;;6.10;4.97;;;;;;;31.41;34.33;99919.63;4895225;29;20459;-87
2022/07/21 10:37:51;;;;;;;4.53;4.13;;;;;;;31.75;32.73;99920.84;4891730;29;20560;-89
2022/07/21 10:40:29;;;;;;;5.03;4.60;;;;;;;31.93;32.86;99929.00;4912641;29;20929;-85
2022/07/21 10:43:00;;;;;;;5.37;4.87;;;;;;;32.18;31.94;99917.16;4912156;29;20611;-88
2022/07/21 10:45:30;;;;;;;4.53;4.17;;;;;;;32.20;31.57;99912.31;4911932;29;20876;-88
2022/07/21 10:47:57;;;;;;;4.83;4.43;;;;;;;32.20;31.58;99911.50;4910992;29;20543;-88
2022/07/21 10:50:33;;;;;;;6.53;4.23;;;;;;;31.79;31.93;99915.81;4912191;29;20478;-87
2022/07/21 10:53:04;;;;;;;4.87;4.40;;;;;;;31.24;32.71;99922.03;4913434;29;20487;-87
2022/07/21 10:55:35;;;;;;;5.10;4.70;;;;;;;31.22;32.74;99916.03;4912213;29;20507;-89
2022/07/21 10:58:14;;;;;;;4.50;4.00;;;;;;;31.41;32.82;99903.31;4912517;29;20962;-87
2022/07/21 11:01:02;;;;;;;4.73;4.10;;;;;;;31.40;32.39;99913.31;4911603;29;20455;-88
2022/07/21 11:03:35;;;;;;;5.20;4.70;;;;;;;31.39;32.80;99900.00;4912625;29;20874;-88
2022/07/21 11:06:06;;;;;;;4.70;4.30;;;;;;;31.46;33.50;99901.59;4912650;29;20566;-86
2022/07/21 11:08:35;;;;;;;5.63;4.80;;;;;;;31.67;33.09;99904.88;4913785;29;20456;-88
2022/07/21 11:11:15;;;;;;;4.67;4.20;;;;;;;31.52;32.44;99900.66;4913225;29;20487;-88
2022/07/21 11:14:01;;;;;;;7.53;4.17;;;;;;;31.28;32.91;99905.09;4914441;29;20855;-89
2022/07/21 11:16:54;;;;;;;4.57;4.17;;;;;;;30.90;33.84;99910.72;4906771;29;20478;-88
2022/07/21 11:19:30;;;;;;;5.13;4.83;;;;;;;30.84;34.01;99906.19;4908693;29;20531;-87
2022/07/21 11:21:59;;;;;;;4.70;4.40;;;;;;;30.71;33.52;99904.38;4913758;29;20463;-87
2022/07/21 11:24:28;;;;;;;8.30;4.63;;;;;;;30.33;34.44;99899.06;4913249;29;20444;-89
2022/07/21 11:27:00;;;;;;;5.10;4.70;;;;;;;29.99;34.51;99890.28;4916490;29;20463;-88
2022/07/21 11:29:30;;;;;;;7.37;4.30;;;;;;;30.14;34.32;99884.59;4901317;29;20464;-90
2022/07/21 11:32:01;;;;;;;4.97;4.50;;;;;;;30.09;34.66;99882.53;4909506;29;20485;-87
2022/07/21 11:34:50;;;;;;;5.63;4.83;;;;;;;29.98;34.83;99880.50;4921377;29;20498;-89
2022/07/21 11:37:26;;;;;;;4.80;4.30;;;;;;;30.14;34.88;99882.69;4922171;29;20463;-87
2022/07/21 11:39:54;;;;;;;5.07;4.67;;;;;;;30.14;35.23;99881.88;4933333;29;20475;-89
2022/07/21 11:42:20;;;;;;;5.53;5.03;;;;;;;30.04;35.42;99881.53;4933868;29;20436;-87
2022/07/21 11:44:51;;;;;;;4.93;3.97;;;;;;;30.13;35.29;99870.19;4934541;29;20512;-88